Time;durP1;ratioP1;P1;durP2;ratioP2;P2;SDS_P1;SDS_P2;PMS_P1;PMS_P2;Temp;Humidity;BMP_temperature;BMP_pressure;BME280_temperature;BME280_humidity;BME280_pressure;Samples;Min_cycle;Max_cycle;Signal;HPM_P1;HPM_P2
2022/04/13 00:02:43;;;;;;;1.47;1.37;;;;;;;;;;5015867;28;20206;-68
2022/04/13 00:05:32;;;;;;;1.40;1.30;;;;;;;;;;5020595;28;20289;-68
2022/04/13 00:08:19;;;;;;;1.40;1.30;;;;;;;;;;5024137;28;20576;-67
2022/04/13 00:11:06;;;;;;;1.40;0.97;;;;;;;;;;5022060;28;20238;-67
2022/04/13 00:13:53;;;;;;;1.03;1.00;;;;;;;;;;5022852;28;20315;-68
2022/04/13 00:16:42;;;;;;;1.50;1.40;;;;;;;;;;5022486;28;20318;-67
2022/04/13 00:19:29;;;;;;;1.20;1.20;;;;;;;;;;5022113;28;20206;-68
2022/04/13 00:22:17;;;;;;;1.03;1.03;;;;;;;;;;5020518;28;20257;-68
2022/04/13 00:25:04;;;;;;;1.27;1.20;;;;;;;;;;5020199;28;20234;-67
2022/04/13 00:27:51;;;;;;;1.00;1.00;;;;;;;;;;5025860;28;20273;-67
2022/04/13 00:30:38;;;;;;;1.13;1.10;;;;;;;;;;5019747;28;20648;-68
2022/04/13 00:33:25;;;;;;;1.00;1.00;;;;;;;;;;5021616;28;20206;-67
2022/04/13 00:36:12;;;;;;;1.10;1.00;;;;;;;;;;5022577;28;20245;-67
2022/04/13 00:39:01;;;;;;;0.80;0.80;;;;;;;;;;5019810;28;20225;-67
2022/04/13 00:41:48;;;;;;;1.30;1.20;;;;;;;;;;5021317;28;20677;-68
2022/04/13 00:44:35;;;;;;;1.07;0.97;;;;;;;;;;5021509;28;20344;-67
2022/04/13 00:47:22;;;;;;;0.87;0.87;;;;;;;;;;5020483;28;20210;-68
2022/04/13 00:50:10;;;;;;;0.70;0.70;;;;;;;;;;5019391;28;20210;-67
2022/04/13 00:52:59;;;;;;;0.80;0.80;;;;;;;;;;5021446;28;20256;-67
2022/04/13 00:55:50;;;;;;;0.70;0.70;;;;;;;;;;5024669;28;20205;-67
2022/04/13 00:58:40;;;;;;;0.93;0.93;;;;;;;;;;5015525;28;20209;-67
2022/04/13 01:01:28;;;;;;;0.73;0.73;;;;;;;;;;5024446;28;20208;-66
2022/04/13 01:04:16;;;;;;;1.33;1.00;;;;;;;;;;5022264;28;20682;-66
2022/04/13 01:07:06;;;;;;;0.83;0.83;;;;;;;;;;5022437;28;20703;-66
2022/04/13 01:09:54;;;;;;;0.80;0.80;;;;;;;;;;5024881;28;20236;-67
2022/04/13 01:12:43;;;;;;;0.77;0.77;;;;;;;;;;5022510;28;20651;-67
2022/04/13 01:15:30;;;;;;;0.70;0.70;;;;;;;;;;5013582;28;20215;-67
2022/04/13 01:18:18;;;;;;;0.60;0.60;;;;;;;;;;5022834;28;20210;-67
2022/04/13 01:21:06;;;;;;;0.53;0.53;;;;;;;;;;5024601;28;20211;-66
2022/04/13 01:23:54;;;;;;;0.83;0.80;;;;;;;;;;5022578;28;20587;-67
2022/04/13 01:26:41;;;;;;;0.80;0.80;;;;;;;;;;5022218;28;20371;-67
2022/04/13 01:29:28;;;;;;;0.60;0.60;;;;;;;;;;5022428;28;20259;-67
2022/04/13 01:32:15;;;;;;;0.90;0.90;;;;;;;;;;5018171;28;20215;-66
2022/04/13 01:35:03;;;;;;;0.80;0.80;;;;;;;;;;5025127;28;20704;-67
2022/04/13 01:37:50;;;;;;;0.80;0.80;;;;;;;;;;5025755;28;20337;-67
2022/04/13 01:40:38;;;;;;;0.80;0.77;;;;;;;;;;5023095;28;20233;-67
2022/04/13 01:43:25;;;;;;;0.80;0.80;;;;;;;;;;5025247;28;20211;-67
2022/04/13 01:46:12;;;;;;;0.83;0.80;;;;;;;;;;5021309;28;20312;-67
2022/04/13 01:48:59;;;;;;;0.80;0.80;;;;;;;;;;5024994;28;20686;-67
2022/04/13 01:51:46;;;;;;;0.60;0.60;;;;;;;;;;5024418;28;20247;-68
2022/04/13 01:54:33;;;;;;;0.77;0.73;;;;;;;;;;5023739;28;20298;-67
2022/04/13 01:57:22;;;;;;;0.87;0.60;;;;;;;;;;5026246;28;20268;-66
2022/04/13 02:00:12;;;;;;;0.80;0.80;;;;;;;;;;5023550;28;20210;-67
2022/04/13 02:02:59;;;;;;;0.43;0.43;;;;;;;;;;5021029;28;20206;-67
2022/04/13 02:05:46;;;;;;;0.60;0.60;;;;;;;;;;5021633;28;20254;-66
2022/04/13 02:08:33;;;;;;;0.60;0.60;;;;;;;;;;5023768;28;20238;-67
2022/04/13 02:11:20;;;;;;;0.90;0.90;;;;;;;;;;5023519;28;20214;-67
2022/04/13 02:14:08;;;;;;;0.60;0.60;;;;;;;;;;5025115;28;20602;-67
2022/04/13 02:16:55;;;;;;;0.60;0.60;;;;;;;;;;5022999;28;20667;-71
2022/04/13 02:19:42;;;;;;;0.77;0.77;;;;;;;;;;5020794;28;20210;-66
2022/04/13 02:22:29;;;;;;;0.70;0.70;;;;;;;;;;5024595;28;20204;-66
2022/04/13 02:25:16;;;;;;;0.50;0.50;;;;;;;;;;5022874;28;20292;-66
2022/04/13 02:28:03;;;;;;;0.70;0.70;;;;;;;;;;5018125;28;20213;-66
2022/04/13 02:30:51;;;;;;;0.73;0.63;;;;;;;;;;5021979;28;20750;-66
2022/04/13 02:33:39;;;;;;;0.50;0.50;;;;;;;;;;5023710;28;20582;-67
2022/04/13 02:36:26;;;;;;;0.50;0.50;;;;;;;;;;5023489;28;20260;-67
2022/04/13 02:39:13;;;;;;;0.70;0.70;;;;;;;;;;5021928;28;20339;-66
2022/04/13 02:42:00;;;;;;;0.60;0.60;;;;;;;;;;5028516;28;20623;-67
2022/04/13 02:44:47;;;;;;;0.70;0.70;;;;;;;;;;5016246;28;20210;-67
2022/04/13 02:47:36;;;;;;;0.57;0.57;;;;;;;;;;5023861;28;20308;-66
2022/04/13 02:50:24;;;;;;;0.70;0.70;;;;;;;;;;5018170;28;20213;-66
2022/04/13 02:53:11;;;;;;;0.63;0.63;;;;;;;;;;5019542;28;20267;-67
2022/04/13 02:55:58;;;;;;;0.50;0.50;;;;;;;;;;5022783;28;20267;-66
2022/04/13 02:58:45;;;;;;;0.57;0.57;;;;;;;;;;5020969;28;20212;-67
2022/04/13 03:01:32;;;;;;;0.43;0.43;;;;;;;;;;5021459;28;20214;-66
2022/04/13 03:04:20;;;;;;;0.40;0.40;;;;;;;;;;5022476;28;20213;-67
2022/04/13 03:07:07;;;;;;;0.40;0.40;;;;;;;;;;5015151;28;20225;-84
2022/04/13 03:09:54;;;;;;;0.43;0.43;;;;;;;;;;5023257;28;20285;-66
2022/04/13 03:12:42;;;;;;;0.57;0.50;;;;;;;;;;5020679;28;20290;-67
2022/04/13 03:15:29;;;;;;;0.60;0.60;;;;;;;;;;5024190;28;20224;-67
2022/04/13 03:18:16;;;;;;;0.50;0.50;;;;;;;;;;5023326;28;20638;-67
2022/04/13 03:21:04;;;;;;;0.73;0.70;;;;;;;;;;5023112;28;20567;-67
2022/04/13 03:23:51;;;;;;;0.60;0.60;;;;;;;;;;5024077;28;20217;-66
2022/04/13 03:26:38;;;;;;;0.40;0.40;;;;;;;;;;5023508;28;20369;-67
2022/04/13 03:29:25;;;;;;;0.50;0.50;;;;;;;;;;5023927;28;20283;-67
2022/04/13 03:32:12;;;;;;;0.30;0.30;;;;;;;;;;5022460;28;20249;-67
2022/04/13 03:35:00;;;;;;;0.67;0.60;;;;;;;;;;5022600;28;20208;-66
2022/04/13 03:37:48;;;;;;;0.80;0.60;;;;;;;;;;5025945;28;20205;-67
2022/04/13 03:40:35;;;;;;;0.50;0.50;;;;;;;;;;5025583;28;20228;-67
2022/04/13 03:43:22;;;;;;;0.60;0.60;;;;;;;;;;5018343;28;20348;-67
2022/04/13 03:46:09;;;;;;;0.50;0.50;;;;;;;;;;5023633;28;20909;-67
2022/04/13 03:48:56;;;;;;;0.50;0.50;;;;;;;;;;5020149;28;20364;-67
2022/04/13 03:51:43;;;;;;;0.50;0.50;;;;;;;;;;5017382;28;20273;-67
2022/04/13 03:54:31;;;;;;;0.70;0.70;;;;;;;;;;5021417;28;20736;-68
2022/04/13 03:57:18;;;;;;;0.70;0.70;;;;;;;;;;5019954;28;20248;-67
2022/04/13 04:00:07;;;;;;;0.50;0.50;;;;;;;;;;5023970;28;20249;-67
2022/04/13 04:02:54;;;;;;;0.53;0.53;;;;;;;;;;5019476;28;20219;-67
2022/04/13 04:05:41;;;;;;;0.80;0.80;;;;;;;;;;5020923;28;20289;-73
2022/04/13 04:08:28;;;;;;;0.67;0.67;;;;;;;;;;5022754;28;20286;-67
2022/04/13 04:11:16;;;;;;;0.70;0.70;;;;;;;;;;5024676;28;20740;-67
2022/04/13 04:14:03;;;;;;;0.53;0.53;;;;;;;;;;5021381;28;20292;-66
2022/04/13 04:16:50;;;;;;;0.70;0.70;;;;;;;;;;5019941;28;20759;-67
2022/04/13 04:19:37;;;;;;;0.60;0.60;;;;;;;;;;5022641;28;20776;-67
2022/04/13 04:22:24;;;;;;;0.80;0.80;;;;;;;;;;5023467;28;20312;-67
2022/04/13 04:25:11;;;;;;;0.63;0.63;;;;;;;;;;5022607;28;20232;-67
2022/04/13 04:27:59;;;;;;;0.50;0.50;;;;;;;;;;5021712;28;20279;-69
2022/04/13 04:30:46;;;;;;;0.67;0.60;;;;;;;;;;5022112;28;20201;-67
2022/04/13 04:33:33;;;;;;;0.67;0.67;;;;;;;;;;5025848;28;20811;-67
2022/04/13 04:36:20;;;;;;;0.70;0.70;;;;;;;;;;5025512;28;20673;-68
2022/04/13 04:39:07;;;;;;;0.53;0.53;;;;;;;;;;5018940;28;20299;-67
2022/04/13 04:41:54;;;;;;;0.80;0.80;;;;;;;;;;5021716;28;20669;-67
2022/04/13 04:44:42;;;;;;;0.50;0.50;;;;;;;;;;5019502;28;20208;-67
2022/04/13 04:47:29;;;;;;;0.60;0.60;;;;;;;;;;5020087;28;20383;-68
2022/04/13 04:50:16;;;;;;;0.83;0.70;;;;;;;;;;5019983;28;20292;-67
2022/04/13 04:53:04;;;;;;;0.50;0.50;;;;;;;;;;5015749;28;20254;-68
2022/04/13 04:55:51;;;;;;;0.60;0.60;;;;;;;;;;5019244;28;20624;-75
2022/04/13 04:58:38;;;;;;;2.63;0.70;;;;;;;;;;5020120;28;20335;-67
2022/04/13 05:01:26;;;;;;;1.87;0.70;;;;;;;;;;5019631;28;20217;-68
2022/04/13 05:04:13;;;;;;;0.80;0.80;;;;;;;;;;5018994;28;20757;-67
2022/04/13 05:07:00;;;;;;;0.60;0.57;;;;;;;;;;5019295;28;20700;-67
2022/04/13 05:09:47;;;;;;;1.23;0.87;;;;;;;;;;5020436;28;20249;-67
2022/04/13 05:12:42;;;;;;;0.70;0.70;;;;;;;;;;5026437;28;20216;-67
2022/04/13 05:15:30;;;;;;;1.47;0.83;;;;;;;;;;5027879;28;20442;-67
2022/04/13 05:18:18;;;;;;;1.07;1.07;;;;;;;;;;5019957;28;20237;-68
2022/04/13 05:21:05;;;;;;;0.80;0.80;;;;;;;;;;5026198;28;20349;-67
2022/04/13 05:23:52;;;;;;;0.63;0.63;;;;;;;;;;5023950;28;20206;-67
2022/04/13 05:26:39;;;;;;;0.80;0.80;;;;;;;;;;5022868;28;20248;-67
2022/04/13 05:29:26;;;;;;;1.27;1.10;;;;;;;;;;5025208;28;20212;-67
2022/04/13 05:32:15;;;;;;;1.30;1.00;;;;;;;;;;5016420;28;20609;-67
2022/04/13 05:35:04;;;;;;;0.90;0.90;;;;;;;;;;5022962;28;20351;-67
2022/04/13 05:37:50;;;;;;;1.03;0.90;;;;;;;;;;5024453;28;20289;-68
2022/04/13 05:40:37;;;;;;;0.83;0.73;;;;;;;;;;5022358;28;20756;-67
2022/04/13 05:43:24;;;;;;;0.80;0.80;;;;;;;;;;5020606;28;20363;-72
2022/04/13 05:46:11;;;;;;;1.23;0.97;;;;;;;;;;5023919;28;20305;-67
2022/04/13 05:48:59;;;;;;;1.10;1.10;;;;;;;;;;5020151;28;20221;-67
2022/04/13 05:51:47;;;;;;;1.30;1.20;;;;;;;;;;5023296;28;20749;-67
2022/04/13 05:54:34;;;;;;;1.60;1.20;;;;;;;;;;5021013;28;20281;-67
2022/04/13 05:57:21;;;;;;;1.00;1.00;;;;;;;;;;5024446;28;20207;-68
2022/04/13 06:00:11;;;;;;;1.83;1.03;;;;;;;;;;5022083;28;20245;-67
2022/04/13 06:02:58;;;;;;;0.87;0.87;;;;;;;;;;5023873;28;20211;-67
2022/04/13 06:05:45;;;;;;;1.23;1.13;;;;;;;;;;5023629;28;20251;-67
2022/04/13 06:08:33;;;;;;;1.40;1.30;;;;;;;;;;5024368;28;20320;-68
2022/04/13 06:11:20;;;;;;;0.87;0.80;;;;;;;;;;5023447;28;20322;-68
2022/04/13 06:14:07;;;;;;;1.27;1.20;;;;;;;;;;5025063;28;20372;-68
2022/04/13 06:16:54;;;;;;;1.00;0.97;;;;;;;;;;5023676;28;20724;-67
2022/04/13 06:19:41;;;;;;;1.20;1.20;;;;;;;;;;5018703;28;20721;-67
2022/04/13 06:22:31;;;;;;;1.80;1.20;;;;;;;;;;5023412;28;20208;-67
2022/04/13 06:25:19;;;;;;;1.00;1.00;;;;;;;;;;5023764;28;20293;-67
2022/04/13 06:28:07;;;;;;;0.97;0.97;;;;;;;;;;5021588;28;20640;-67
2022/04/13 06:30:54;;;;;;;1.30;1.20;;;;;;;;;;5022317;28;20858;-66
2022/04/13 06:33:40;;;;;;;1.30;1.20;;;;;;;;;;5019355;28;20213;-66
2022/04/13 06:36:27;;;;;;;1.50;1.40;;;;;;;;;;5022095;28;20269;-66
2022/04/13 06:39:15;;;;;;;1.40;1.30;;;;;;;;;;5022240;28;20224;-67
2022/04/13 06:42:03;;;;;;;1.20;1.10;;;;;;;;;;5025987;28;20570;-71
2022/04/13 06:44:53;;;;;;;1.23;1.23;;;;;;;;;;5020739;28;20295;-67
2022/04/13 06:47:40;;;;;;;1.00;1.00;;;;;;;;;;5019985;28;20220;-68
2022/04/13 06:50:27;;;;;;;1.50;1.40;;;;;;;;;;5023065;28;20264;-66
2022/04/13 06:53:14;;;;;;;1.37;1.27;;;;;;;;;;5020229;28;20273;-66
2022/04/13 06:56:01;;;;;;;1.10;1.10;;;;;;;;;;5021231;28;20213;-66
2022/04/13 06:58:50;;;;;;;1.43;1.33;;;;;;;;;;5023392;28;20209;-67
2022/04/13 07:01:37;;;;;;;1.50;1.40;;;;;;;;;;5022616;28;20274;-67
2022/04/13 07:04:23;;;;;;;1.60;1.50;;;;;;;;;;5023616;28;20300;-66
2022/04/13 07:07:10;;;;;;;1.53;1.43;;;;;;;;;;5021235;28;20276;-67
2022/04/13 07:09:57;;;;;;;1.87;1.30;;;;;;;;;;5022447;28;20686;-67
2022/04/13 07:12:44;;;;;;;1.70;1.60;;;;;;;;;;5020034;28;20301;-66
2022/04/13 07:15:33;;;;;;;1.03;1.03;;;;;;;;;;5018049;28;20272;-66
2022/04/13 07:18:20;;;;;;;1.60;1.50;;;;;;;;;;5022188;28;20328;-67
2022/04/13 07:21:07;;;;;;;1.43;1.33;;;;;;;;;;5015535;28;20322;-66
2022/04/13 07:23:55;;;;;;;1.30;1.20;;;;;;;;;;5024954;28;20368;-67
2022/04/13 07:26:41;;;;;;;1.47;1.37;;;;;;;;;;5019660;28;20218;-66
2022/04/13 07:29:28;;;;;;;2.10;1.40;;;;;;;;;;5021445;28;20257;-67
2022/04/13 07:32:17;;;;;;;1.50;1.40;;;;;;;;;;5022339;28;20344;-66
2022/04/13 07:35:04;;;;;;;1.37;1.30;;;;;;;;;;5024009;28;20297;-67
2022/04/13 07:37:51;;;;;;;1.80;1.70;;;;;;;;;;5025611;28;20714;-66
2022/04/13 07:40:38;;;;;;;1.30;1.20;;;;;;;;;;5016198;28;20677;-66
2022/04/13 07:43:25;;;;;;;1.70;1.60;;;;;;;;;;5019961;28;20297;-67
2022/04/13 07:46:12;;;;;;;1.83;1.73;;;;;;;;;;5017423;28;20211;-67
2022/04/13 07:49:01;;;;;;;2.07;1.43;;;;;;;;;;5022771;28;20279;-67
2022/04/13 07:51:48;;;;;;;1.47;1.40;;;;;;;;;;5023366;28;20245;-66
2022/04/13 07:54:35;;;;;;;2.30;1.60;;;;;;;;;;5020387;28;20290;-67
2022/04/13 07:57:22;;;;;;;1.90;1.80;;;;;;;;;;5020602;28;20250;-67
2022/04/13 08:00:11;;;;;;;3.47;1.53;;;;;;;;;;5020231;28;20323;-68
2022/04/13 08:02:58;;;;;;;1.20;1.20;;;;;;;;;;5019833;28;20832;-67
2022/04/13 08:05:46;;;;;;;1.07;1.07;;;;;;;;;;5019490;28;20344;-66
2022/04/13 08:08:33;;;;;;;1.60;1.50;;;;;;;;;;5019874;28;20643;-67
2022/04/13 08:11:20;;;;;;;1.57;1.47;;;;;;;;;;5024674;28;20329;-66
2022/04/13 08:14:07;;;;;;;1.60;1.50;;;;;;;;;;5023779;28;20265;-67
2022/04/13 08:16:54;;;;;;;3.13;1.50;;;;;;;;;;5024666;28;20623;-67
2022/04/13 08:19:42;;;;;;;1.60;1.50;;;;;;;;;;5023722;28;20290;-67
2022/04/13 08:22:31;;;;;;;1.43;1.33;;;;;;;;;;5022255;28;20252;-66
2022/04/13 08:25:18;;;;;;;1.20;1.20;;;;;;;;;;5024087;28;20209;-67
2022/04/13 08:28:05;;;;;;;1.40;1.30;;;;;;;;;;5017417;28;20282;-66
2022/04/13 08:30:52;;;;;;;1.33;1.33;;;;;;;;;;5019028;28;20359;-67
2022/04/13 08:33:39;;;;;;;1.20;1.20;;;;;;;;;;5019585;28;20265;-67
2022/04/13 08:36:26;;;;;;;1.60;1.50;;;;;;;;;;5024220;28;20711;-67
2022/04/13 08:39:14;;;;;;;1.60;1.50;;;;;;;;;;5023739;28;20315;-67
2022/04/13 08:42:10;;;;;;;1.80;1.70;;;;;;;;;;5014843;28;20213;-67
2022/04/13 08:45:02;;;;;;;2.07;1.43;;;;;;;;;;5021673;28;20213;-67
2022/04/13 08:47:50;;;;;;;1.80;1.70;;;;;;;;;;5019512;28;20222;-67
2022/04/13 08:50:38;;;;;;;1.50;1.40;;;;;;;;;;5020041;28;20219;-67
2022/04/13 08:53:29;;;;;;;1.73;1.63;;;;;;;;;;5018635;28;20315;-67
2022/04/13 08:56:19;;;;;;;1.70;1.60;;;;;;;;;;5017882;28;20208;-67
2022/04/13 08:59:15;;;;;;;1.63;1.53;;;;;;;;;;5019737;28;20213;-67
2022/04/13 09:02:12;;;;;;;1.70;1.60;;;;;;;;;;5020462;28;20221;-67
2022/04/13 09:05:01;;;;;;;1.73;1.63;;;;;;;;;;5022558;28;20609;-67
2022/04/13 09:07:54;;;;;;;1.87;1.60;;;;;;;;;;5019012;28;20225;-67
2022/04/13 09:10:41;;;;;;;1.57;1.47;;;;;;;;;;5013548;28;20614;-67
2022/04/13 09:13:33;;;;;;;2.20;1.83;;;;;;;;;;5020669;28;20674;-67
2022/04/13 09:16:20;;;;;;;1.83;1.73;;;;;;;;;;5019420;28;20585;-67
2022/04/13 09:19:07;;;;;;;1.73;1.63;;;;;;;;;;5021690;28;20281;-67
2022/04/13 09:21:55;;;;;;;1.80;1.70;;;;;;;;;;5022580;28;20291;-67
2022/04/13 09:24:43;;;;;;;1.67;1.57;;;;;;;;;;5020039;28;20670;-67
2022/04/13 09:27:31;;;;;;;1.90;1.80;;;;;;;;;;5024729;28;20313;-67
2022/04/13 09:30:19;;;;;;;2.07;1.90;;;;;;;;;;5020987;28;20202;-67
2022/04/13 09:33:06;;;;;;;1.90;1.80;;;;;;;;;;5026108;28;20206;-66
2022/04/13 09:35:54;;;;;;;1.83;1.73;;;;;;;;;;5015935;28;20221;-67
2022/04/13 09:38:41;;;;;;;2.87;1.80;;;;;;;;;;5020629;28;20205;-66
2022/04/13 09:41:34;;;;;;;1.83;1.73;;;;;;;;;;5022668;28;20281;-67
2022/04/13 09:44:20;;;;;;;2.00;1.70;;;;;;;;;;5017859;28;20280;-67
2022/04/13 09:47:11;;;;;;;1.90;1.80;;;;;;;;;;5020945;28;20293;-68
2022/04/13 09:49:58;;;;;;;1.80;1.70;;;;;;;;;;5022180;28;20206;-67
2022/04/13 09:52:45;;;;;;;1.93;1.83;;;;;;;;;;5019727;28;20299;-68
2022/04/13 09:55:34;;;;;;;1.80;1.70;;;;;;;;;;5022215;28;20683;-67
2022/04/13 09:58:23;;;;;;;2.17;1.97;;;;;;;;;;5021686;28;20304;-67
2022/04/13 10:01:10;;;;;;;2.00;1.90;;;;;;;;;;5022478;28;20317;-67
2022/04/13 10:03:59;;;;;;;1.80;1.70;;;;;;;;;;5020992;28;20225;-67
2022/04/13 10:06:46;;;;;;;2.30;1.77;;;;;;;;;;5022772;28;20588;-67
2022/04/13 10:09:33;;;;;;;2.20;1.93;;;;;;;;;;5022598;28;20649;-67
2022/04/13 10:12:20;;;;;;;2.10;1.83;;;;;;;;;;5024483;28;20202;-67
2022/04/13 10:15:07;;;;;;;2.90;2.20;;;;;;;;;;5022994;28;20213;-66
2022/04/13 10:17:59;;;;;;;2.40;2.20;;;;;;;;;;5026510;28;20298;-66
2022/04/13 10:20:48;;;;;;;2.07;1.97;;;;;;;;;;5024975;28;20213;-67
2022/04/13 10:23:41;;;;;;;2.10;2.00;;;;;;;;;;5020794;28;20264;-67
2022/04/13 10:26:28;;;;;;;2.10;1.90;;;;;;;;;;5028695;28;20221;-66
2022/04/13 10:29:18;;;;;;;2.50;2.30;;;;;;;;;;5025176;28;20278;-66
2022/04/13 10:32:07;;;;;;;2.30;2.17;;;;;;;;;;5021519;28;20261;-67
2022/04/13 10:34:55;;;;;;;2.40;2.20;;;;;;;;;;5026110;28;20316;-67
2022/04/13 10:37:44;;;;;;;2.40;2.30;;;;;;;;;;5025548;28;20296;-67
2022/04/13 10:40:32;;;;;;;2.10;1.90;;;;;;;;;;5024918;28;20209;-67
2022/04/13 10:43:22;;;;;;;2.37;2.27;;;;;;;;;;5022995;28;20666;-67
2022/04/13 10:46:10;;;;;;;2.10;2.00;;;;;;;;;;5020089;28;20213;-68
2022/04/13 10:49:07;;;;;;;2.10;2.00;;;;;;;;;;5021937;28;20721;-67
2022/04/13 10:51:56;;;;;;;2.37;2.17;;;;;;;;;;5022438;28;20279;-67
2022/04/13 10:54:50;;;;;;;2.10;2.00;;;;;;;;;;5024681;28;20300;-66
2022/04/13 10:57:39;;;;;;;2.50;2.40;;;;;;;;;;5023374;28;20210;-67
2022/04/13 11:00:26;;;;;;;2.33;2.23;;;;;;;;;;5023436;28;20207;-67
2022/04/13 11:03:14;;;;;;;1.90;1.80;;;;;;;;;;5021061;28;20719;-67
2022/04/13 11:06:03;;;;;;;2.50;2.40;;;;;;;;;;5020447;28;20210;-67
2022/04/13 11:08:54;;;;;;;2.03;1.93;;;;;;;;;;5018359;28;20770;-67
2022/04/13 11:11:44;;;;;;;1.83;1.73;;;;;;;;;;5017904;28;20284;-67
2022/04/13 11:14:31;;;;;;;2.47;2.27;;;;;;;;;;5024175;28;20587;-66
2022/04/13 11:17:25;;;;;;;2.50;2.30;;;;;;;;;;5021697;28;20238;-67
2022/04/13 11:20:17;;;;;;;2.23;2.00;;;;;;;;;;5019080;28;20202;-67
2022/04/13 11:23:08;;;;;;;2.60;2.10;;;;;;;;;;5023009;28;20216;-67
2022/04/13 11:25:58;;;;;;;2.20;2.00;;;;;;;;;;5020911;28;20276;-67
2022/04/13 11:28:47;;;;;;;1.93;1.83;;;;;;;;;;5022808;28;20707;-67
2022/04/13 11:32:13;;;;;;;2.30;2.10;;;;;;;;;;5021259;28;20310;-68
2022/04/13 11:35:01;;;;;;;2.10;2.00;;;;;;;;;;5018240;28;20246;-67
2022/04/13 11:38:03;;;;;;;2.77;2.03;;;;;;;;;;5016432;28;20312;-67
2022/04/13 11:41:04;;;;;;;2.33;2.13;;;;;;;;;;5017455;28;20243;-67
2022/04/13 11:43:53;;;;;;;2.07;1.90;;;;;;;;;;5020183;28;20258;-67
2022/04/13 11:46:41;;;;;;;2.20;2.10;;;;;;;;;;5019121;28;20230;-67
2022/04/13 11:49:33;;;;;;;2.67;2.40;;;;;;;;;;5017426;28;20241;-66
2022/04/13 11:52:39;;;;;;;2.47;2.27;;;;;;;;;;5016256;28;20586;-68
2022/04/13 11:55:29;;;;;;;2.20;2.10;;;;;;;;;;5017971;28;20203;-67
2022/04/13 11:58:21;;;;;;;2.20;2.10;;;;;;;;;;5016045;28;20595;-67
2022/04/13 12:01:12;;;;;;;2.07;1.97;;;;;;;;;;5015600;28;20299;-67
2022/04/13 12:03:59;;;;;;;2.20;2.10;;;;;;;;;;5014124;28;20205;-67
2022/04/13 12:06:46;;;;;;;2.23;2.10;;;;;;;;;;5011702;28;20697;-70
2022/04/13 12:09:33;;;;;;;2.33;2.23;;;;;;;;;;5017923;28;20523;-68
2022/04/13 12:12:22;;;;;;;2.70;2.43;;;;;;;;;;5018976;28;20284;-67
2022/04/13 12:15:09;;;;;;;2.60;2.40;;;;;;;;;;5017843;28;20697;-67
2022/04/13 12:17:58;;;;;;;2.40;2.20;;;;;;;;;;5017315;28;20701;-66
2022/04/13 12:20:45;;;;;;;2.27;2.07;;;;;;;;;;5023943;28;20248;-67
2022/04/13 12:23:35;;;;;;;2.30;2.20;;;;;;;;;;5024379;28;20240;-67
2022/04/13 12:26:33;;;;;;;2.40;2.20;;;;;;;;;;5023319;28;20215;-67
2022/04/13 12:29:22;;;;;;;2.20;2.10;;;;;;;;;;5023111;28;20225;-68
2022/04/13 12:32:09;;;;;;;2.37;2.27;;;;;;;;;;5025328;28;20749;-67
2022/04/13 12:34:59;;;;;;;2.10;2.00;;;;;;;;;;5022633;28;20223;-67
2022/04/13 12:37:51;;;;;;;2.30;2.10;;;;;;;;;;5017478;28;20275;-67
2022/04/13 12:40:38;;;;;;;2.30;2.20;;;;;;;;;;5019755;28;20237;-67
2022/04/13 12:43:26;;;;;;;2.27;2.17;;;;;;;;;;5019915;28;20345;-67
2022/04/13 12:46:15;;;;;;;2.07;1.97;;;;;;;;;;5015728;28;20211;-67
2022/04/13 12:49:04;;;;;;;3.00;2.20;;;;;;;;;;5018291;28;20231;-67
2022/04/13 12:51:55;;;;;;;2.30;2.10;;;;;;;;;;5020532;28;20270;-67
2022/04/13 12:54:42;;;;;;;2.70;2.10;;;;;;;;;;5020323;28;20768;-67
2022/04/13 12:57:30;;;;;;;3.53;2.20;;;;;;;;;;5024181;28;20550;-67
2022/04/13 13:00:51;;;;;;;2.53;2.40;;;;;;;;;;5020547;28;20280;-67
2022/04/13 13:03:41;;;;;;;2.27;2.17;;;;;;;;;;5022160;28;20207;-67
2022/04/13 13:06:30;;;;;;;2.30;2.13;;;;;;;;;;5023490;28;20215;-67
2022/04/13 13:09:23;;;;;;;2.57;2.37;;;;;;;;;;5022852;28;20639;-67
2022/04/13 13:12:15;;;;;;;3.87;2.50;;;;;;;;;;5022394;28;20213;-67
2022/04/13 13:15:02;;;;;;;2.67;2.47;;;;;;;;;;5024365;28;20207;-67
2022/04/13 13:17:49;;;;;;;2.20;2.00;;;;;;;;;;5021578;28;20787;-68
2022/04/13 13:20:52;;;;;;;2.50;2.30;;;;;;;;;;5022711;28;20317;-67
2022/04/13 13:23:49;;;;;;;2.47;2.27;;;;;;;;;;5026596;28;20217;-68
2022/04/13 13:26:37;;;;;;;2.50;2.30;;;;;;;;;;5022938;28;20215;-67
2022/04/13 13:29:24;;;;;;;2.20;2.00;;;;;;;;;;5026130;28;20292;-67
2022/04/13 13:32:12;;;;;;;2.40;2.20;;;;;;;;;;5024951;28;20331;-67
2022/04/13 13:35:01;;;;;;;2.20;2.10;;;;;;;;;;5024967;28;20221;-67
2022/04/13 13:37:49;;;;;;;2.13;1.97;;;;;;;;;;5024689;28;20222;-67
2022/04/13 13:40:45;;;;;;;2.37;2.07;;;;;;;;;;5026455;28;20744;-67
2022/04/13 13:43:37;;;;;;;2.00;1.90;;;;;;;;;;5020170;28;20229;-67
2022/04/13 13:46:25;;;;;;;2.20;2.10;;;;;;;;;;5025897;28;20206;-68
2022/04/13 13:49:12;;;;;;;2.50;2.30;;;;;;;;;;5023864;28;20237;-67
2022/04/13 13:51:59;;;;;;;2.30;2.10;;;;;;;;;;5024370;28;20360;-67
2022/04/13 13:54:46;;;;;;;2.07;1.97;;;;;;;;;;5024888;28;20287;-67
2022/04/13 13:57:33;;;;;;;2.10;2.00;;;;;;;;;;5024876;28;20559;-67
2022/04/13 14:00:22;;;;;;;1.90;1.80;;;;;;;;;;5024585;28;20211;-67
2022/04/13 14:03:10;;;;;;;1.83;1.73;;;;;;;;;;5022748;28;20297;-67
2022/04/13 14:05:57;;;;;;;2.30;2.10;;;;;;;;;;5026253;28;20293;-67
2022/04/13 14:08:45;;;;;;;2.27;2.07;;;;;;;;;;5027664;28;20567;-67
2022/04/13 14:11:32;;;;;;;2.13;2.03;;;;;;;;;;5025157;28;20667;-66
2022/04/13 14:14:19;;;;;;;3.27;2.40;;;;;;;;;;5026766;28;20205;-66
2022/04/13 14:17:08;;;;;;;3.07;1.93;;;;;;;;;;5026311;28;20206;-67
2022/04/13 14:19:55;;;;;;;2.40;2.20;;;;;;;;;;5021508;28;20538;-67
2022/04/13 14:22:44;;;;;;;4.23;2.50;;;;;;;;;;5019729;28;20214;-66
2022/04/13 14:25:31;;;;;;;3.67;2.10;;;;;;;;;;5019999;28;20667;-66
2022/04/13 14:28:18;;;;;;;2.23;2.13;;;;;;;;;;5025000;28;20247;-67
2022/04/13 14:31:04;;;;;;;2.30;2.10;;;;;;;;;;5024139;28;20206;-66
2022/04/13 14:33:53;;;;;;;2.20;2.10;;;;;;;;;;5025449;28;20338;-66
2022/04/13 14:36:41;;;;;;;2.50;2.30;;;;;;;;;;5023228;28;20205;-66
2022/04/13 14:39:28;;;;;;;2.60;2.40;;;;;;;;;;5025965;28;20209;-66
2022/04/13 14:42:15;;;;;;;2.17;2.07;;;;;;;;;;5028331;28;20364;-67
2022/04/13 14:45:03;;;;;;;3.20;2.17;;;;;;;;;;5026054;28;20301;-66
2022/04/13 14:47:50;;;;;;;2.47;2.27;;;;;;;;;;5023801;28;20543;-67
2022/04/13 14:50:39;;;;;;;2.57;2.03;;;;;;;;;;5020702;28;20225;-66
2022/04/13 14:53:26;;;;;;;2.40;2.20;;;;;;;;;;5024388;28;20270;-66
2022/04/13 14:56:13;;;;;;;2.23;2.03;;;;;;;;;;5023010;28;20311;-66
2022/04/13 14:59:01;;;;;;;2.50;2.00;;;;;;;;;;5023111;28;20259;-66
2022/04/13 15:01:48;;;;;;;2.27;2.07;;;;;;;;;;5023298;28;20202;-66
2022/04/13 15:04:35;;;;;;;2.50;2.03;;;;;;;;;;5025874;28;20213;-68
2022/04/13 15:07:23;;;;;;;2.27;2.17;;;;;;;;;;5025935;28;20295;-66
2022/04/13 15:10:12;;;;;;;2.33;2.20;;;;;;;;;;5022165;28;20319;-66
2022/04/13 15:12:59;;;;;;;2.37;2.17;;;;;;;;;;5025855;28;20215;-66
2022/04/13 15:15:46;;;;;;;2.40;2.20;;;;;;;;;;5026849;28;20204;-67
2022/04/13 15:18:33;;;;;;;2.10;2.00;;;;;;;;;;5026859;28;20198;-66
2022/04/13 15:21:20;;;;;;;2.27;2.13;;;;;;;;;;5020076;28;20279;-66
2022/04/13 15:24:08;;;;;;;3.13;2.37;;;;;;;;;;5023968;28;20204;-66
2022/04/13 15:26:55;;;;;;;2.70;2.50;;;;;;;;;;5019115;28;20244;-66
2022/04/13 15:29:42;;;;;;;3.80;2.40;;;;;;;;;;5020857;28;20312;-66
2022/04/13 15:32:29;;;;;;;2.20;2.10;;;;;;;;;;5019835;28;20327;-66
2022/04/13 15:35:16;;;;;;;2.37;2.17;;;;;;;;;;5021066;28;20269;-69
2022/04/13 15:38:03;;;;;;;2.50;2.30;;;;;;;;;;5019050;28;20204;-66
2022/04/13 15:40:51;;;;;;;2.77;2.50;;;;;;;;;;5022409;28;20223;-66
2022/04/13 15:43:38;;;;;;;3.83;2.30;;;;;;;;;;5020637;28;20216;-66
2022/04/13 15:46:26;;;;;;;2.30;2.10;;;;;;;;;;5021045;28;20287;-66
2022/04/13 15:49:12;;;;;;;4.47;1.73;;;;;;;;;;5023477;28;20207;-66
2022/04/13 15:51:59;;;;;;;3.10;2.43;;;;;;;;;;5016909;28;20321;-66
2022/04/13 15:54:49;;;;;;;2.20;2.10;;;;;;;;;;5012564;28;20293;-66
2022/04/13 15:57:37;;;;;;;3.07;2.20;;;;;;;;;;5017525;28;20221;-66
2022/04/13 16:00:24;;;;;;;2.00;1.90;;;;;;;;;;5015706;28;20732;-66
2022/04/13 16:03:11;;;;;;;2.00;1.90;;;;;;;;;;5020016;28;20295;-66
2022/04/13 16:05:58;;;;;;;2.50;2.23;;;;;;;;;;5024204;28;20687;-66
2022/04/13 16:08:45;;;;;;;2.20;2.10;;;;;;;;;;5024107;28;20235;-66
2022/04/13 16:11:32;;;;;;;2.43;2.20;;;;;;;;;;5022496;28;20347;-66
2022/04/13 16:14:20;;;;;;;2.20;2.10;;;;;;;;;;5023972;28;20236;-66
2022/04/13 16:17:07;;;;;;;2.43;2.17;;;;;;;;;;5021101;28;20248;-66
2022/04/13 16:19:58;;;;;;;2.27;2.07;;;;;;;;;;5023333;28;20342;-66
2022/04/13 16:22:45;;;;;;;2.43;2.23;;;;;;;;;;5021462;28;20740;-66
2022/04/13 16:25:32;;;;;;;2.10;2.00;;;;;;;;;;5025859;28;20249;-66
2022/04/13 16:28:19;;;;;;;2.50;2.30;;;;;;;;;;5021484;28;20312;-65
2022/04/13 16:31:07;;;;;;;2.60;2.40;;;;;;;;;;5023752;28;20286;-66
2022/04/13 16:33:54;;;;;;;2.60;2.40;;;;;;;;;;5020802;28;20287;-66
2022/04/13 16:36:41;;;;;;;4.03;2.53;;;;;;;;;;5025716;28;20335;-68
2022/04/13 16:39:28;;;;;;;2.50;2.30;;;;;;;;;;5020502;28;20213;-66
2022/04/13 16:42:15;;;;;;;2.77;2.57;;;;;;;;;;5016294;28;20272;-66
2022/04/13 16:45:02;;;;;;;3.20;2.90;;;;;;;;;;5019309;28;20793;-66
2022/04/13 16:47:50;;;;;;;2.77;2.57;;;;;;;;;;5019518;28;20607;-66
2022/04/13 16:50:37;;;;;;;2.70;2.50;;;;;;;;;;5020184;28;20320;-66